createdAt,value
2023-04-11T00:00:39.331Z,4.18
2023-04-11T00:03:43.447Z,2.13
2023-04-11T00:06:17.399Z,1.20
2023-04-11T00:12:04.573Z,3.15
2023-04-11T00:15:15.686Z,2.42
2023-04-11T00:18:01.708Z,3.63
2023-04-11T00:21:01.937Z,4.28
2023-04-11T00:23:43.779Z,2.25
2023-04-11T00:26:26.630Z,5.65
2023-04-11T00:29:08.293Z,3.28
2023-04-11T00:31:58.747Z,2.83
2023-04-11T00:34:47.763Z,2.17
2023-04-11T00:37:41.551Z,1.92
2023-04-11T00:40:34.984Z,2.30
2023-04-11T00:43:18.703Z,1.83
2023-04-11T00:46:02.930Z,2.17
2023-04-11T00:48:39.214Z,2.38
2023-04-11T00:51:23.954Z,3.17
2023-04-11T00:54:14.610Z,2.42
2023-04-11T00:56:51.514Z,8.00
2023-04-11T00:59:22.307Z,5.65
2023-04-11T01:02:15.841Z,1.70
2023-04-11T01:04:49.991Z,3.30
2023-04-11T01:07:24.284Z,2.72
2023-04-11T01:10:00.145Z,2.08
2023-04-11T01:12:37.736Z,1.77
2023-04-11T01:15:14.007Z,0.38
2023-04-11T01:18:04.828Z,4.78
2023-04-11T01:20:55.501Z,2.13
2023-04-11T01:26:49.538Z,5.75
2023-04-11T01:29:29.358Z,5.05
2023-04-11T01:32:11.953Z,5.50
2023-04-11T01:34:56.933Z,3.25
2023-04-11T01:37:54.524Z,3.05
2023-04-11T01:40:38.023Z,3.95
2023-04-11T01:43:15.627Z,1.05
2023-04-11T01:45:50.019Z,7.45
2023-04-11T01:48:34.846Z,4.07
2023-04-11T01:51:15.783Z,2.22
2023-04-11T01:53:49.732Z,1.90
2023-04-11T01:59:02.415Z,1.85
2023-04-11T02:01:33.666Z,4.75
2023-04-11T02:04:01.899Z,6.60
2023-04-11T02:06:50.472Z,7.70
2023-04-11T02:09:22.852Z,3.75
2023-04-11T02:11:59.642Z,7.85
2023-04-11T02:14:48.679Z,6.70
2023-04-11T02:17:26.615Z,7.63
2023-04-11T02:20:13.139Z,7.43
2023-04-11T02:22:46.085Z,3.15
2023-04-11T02:25:27.100Z,7.15
2023-04-11T02:27:56.180Z,2.65
2023-04-11T02:30:24.914Z,6.60
2023-04-11T02:32:55.487Z,7.78
2023-04-11T02:38:48.450Z,1.58
2023-04-11T02:41:52.598Z,8.02
2023-04-11T02:44:45.249Z,14.20
2023-04-11T02:47:49.324Z,4.38
2023-04-11T02:57:12.136Z,7.43
2023-04-11T02:59:48.660Z,11.27
2023-04-11T03:02:31.784Z,9.18
2023-04-11T03:05:27.149Z,11.38
2023-04-11T03:07:54.962Z,9.40
2023-04-11T03:10:25.043Z,6.22
2023-04-11T03:12:52.315Z,11.93
2023-04-11T03:15:35.551Z,14.88
2023-04-11T03:18:20.881Z,8.15
2023-04-11T03:20:53.977Z,5.35
2023-04-11T03:26:38.437Z,10.40
2023-04-11T03:29:13.827Z,14.80
2023-04-11T03:31:58.391Z,15.50
2023-04-11T03:34:28.846Z,6.75
2023-04-11T03:37:02.478Z,15.88
2023-04-11T03:39:38.914Z,16.15
2023-04-11T03:42:08.674Z,10.68
2023-04-11T03:44:55.669Z,13.10
2023-04-11T03:47:54.779Z,10.68
2023-04-11T03:50:28.305Z,10.63
2023-04-11T03:52:59.614Z,12.75
2023-04-11T03:58:45.203Z,10.00
2023-04-11T04:01:18.651Z,15.95
2023-04-11T04:03:48.037Z,15.13
2023-04-11T04:06:16.340Z,18.48
2023-04-11T04:08:44.401Z,27.45
2023-04-11T04:11:11.746Z,26.35
2023-04-11T04:13:38.972Z,23.30
2023-04-11T04:16:17.563Z,22.17
2023-04-11T04:18:50.403Z,19.40
2023-04-11T04:21:17.892Z,16.48
2023-04-11T04:23:47.547Z,19.15
2023-04-11T04:26:33.616Z,14.52
2023-04-11T04:29:34.156Z,16.15
2023-04-11T04:32:10.649Z,16.58
2023-04-11T04:34:46.968Z,14.10
2023-04-11T04:37:21.926Z,23.60
2023-04-11T04:39:57.829Z,18.17
2023-04-11T04:42:30.009Z,24.73
2023-04-11T04:45:02.880Z,12.80
2023-04-11T04:47:35.711Z,13.25
2023-04-11T04:50:03.814Z,18.10
2023-04-11T04:52:31.912Z,25.42
2023-04-11T04:54:59.334Z,26.67
2023-04-11T04:57:32.163Z,19.60
2023-04-11T04:59:59.846Z,33.00
2023-04-11T05:02:27.223Z,26.23
2023-04-11T05:04:56.890Z,27.30
2023-04-11T05:07:26.417Z,22.60
2023-04-11T05:09:53.550Z,18.45
2023-04-11T05:12:27.054Z,22.42
2023-04-11T05:14:58.699Z,17.45
2023-04-11T05:17:29.497Z,17.80
2023-04-11T05:19:57.176Z,14.98
2023-04-11T05:22:25.016Z,21.27
2023-04-11T05:24:54.950Z,18.10
2023-04-11T05:27:22.060Z,30.73
2023-04-11T05:29:49.090Z,18.02
2023-04-11T05:32:18.083Z,25.40
2023-04-11T05:34:58.694Z,25.15
2023-04-11T05:37:34.614Z,21.80
2023-04-11T05:40:01.686Z,11.70
2023-04-11T05:42:28.802Z,27.08
2023-04-11T05:44:55.897Z,29.52
2023-04-11T05:47:23.557Z,13.85
2023-04-11T05:49:50.751Z,20.15
2023-04-11T05:52:17.871Z,16.85
2023-04-11T05:54:44.865Z,24.70
2023-04-11T05:57:11.879Z,18.25
2023-04-11T05:59:38.894Z,21.35
2023-04-11T06:02:06.300Z,23.45
2023-04-11T06:04:33.678Z,23.05
2023-04-11T06:07:02.519Z,19.08
2023-04-11T06:09:30.172Z,18.27
2023-04-11T06:11:58.395Z,11.45
2023-04-11T06:14:25.552Z,21.63
2023-04-11T06:16:52.597Z,14.75
2023-04-11T06:19:19.613Z,26.15
2023-04-11T06:21:46.696Z,25.67
2023-04-11T06:24:15.626Z,17.83
2023-04-11T06:26:42.695Z,23.52
2023-04-11T06:29:10.283Z,19.33
2023-04-11T06:31:37.407Z,16.85
2023-04-11T06:34:04.398Z,13.70
2023-04-11T06:36:31.519Z,19.33
2023-04-11T06:38:58.591Z,22.60
2023-04-11T06:41:25.632Z,17.98
2023-04-11T06:43:52.645Z,14.88
2023-04-11T06:46:19.717Z,17.35
2023-04-11T06:48:46.767Z,28.50
2023-04-11T06:51:13.776Z,13.82
2023-04-11T06:53:40.768Z,17.02
2023-04-11T06:56:08.464Z,18.27
2023-04-11T06:58:35.651Z,18.60
2023-04-11T07:01:02.695Z,10.43
2023-04-11T07:03:30.995Z,25.25
2023-04-11T07:05:58.221Z,7.95
2023-04-11T07:08:25.263Z,13.18
2023-04-11T07:10:52.310Z,19.65
2023-04-11T07:13:21.185Z,20.10
2023-04-11T07:15:48.308Z,18.10
2023-04-11T07:18:15.395Z,17.27
2023-04-11T07:20:42.494Z,16.50
2023-04-11T07:23:09.519Z,20.02
2023-04-11T07:25:36.832Z,18.77
2023-04-11T07:28:08.383Z,21.02
2023-04-11T07:30:38.641Z,17.42
2023-04-11T07:33:05.786Z,26.08
2023-04-11T07:35:34.735Z,26.70
2023-04-11T07:38:01.864Z,18.45
2023-04-11T07:40:29.039Z,24.08
2023-04-11T07:42:56.101Z,23.90
2023-04-11T07:45:23.226Z,12.52
2023-04-11T07:47:50.497Z,15.65
2023-04-11T07:50:17.724Z,28.27
2023-04-11T07:52:44.743Z,19.58
2023-04-11T07:55:11.821Z,12.13
2023-04-11T07:57:38.841Z,13.30
2023-04-11T08:00:06.779Z,23.10
2023-04-11T08:02:39.236Z,14.93
2023-04-11T08:05:11.154Z,17.20
2023-04-11T08:07:38.282Z,10.82
2023-04-11T08:10:07.130Z,16.00
2023-04-11T08:12:34.190Z,12.57
2023-04-11T08:15:01.260Z,20.05
2023-04-11T08:17:29.324Z,21.48
2023-04-11T08:19:57.839Z,17.90
2023-04-11T08:22:24.926Z,18.63
2023-04-11T08:24:52.128Z,21.95
2023-04-11T08:27:19.126Z,19.48
2023-04-11T08:29:46.129Z,17.00
2023-04-11T08:32:13.131Z,21.58
2023-04-11T08:34:40.226Z,14.05
2023-04-11T08:37:07.374Z,12.50
2023-04-11T08:39:34.452Z,17.33
2023-04-11T08:42:01.509Z,15.18
2023-04-11T08:44:28.566Z,13.65
2023-04-11T08:46:55.673Z,14.75
2023-04-11T08:49:22.681Z,11.98
2023-04-11T08:51:53.644Z,15.93
2023-04-11T08:54:20.752Z,12.65
2023-04-11T08:56:47.993Z,14.23
2023-04-11T08:59:15.006Z,8.43
2023-04-11T09:01:42.245Z,6.35
2023-04-11T09:04:11.322Z,13.95
2023-04-11T09:06:40.050Z,14.05
2023-04-11T09:09:07.987Z,6.45
2023-04-11T09:11:54.703Z,11.05
2023-04-11T09:14:24.973Z,9.90
2023-04-11T09:17:06.117Z,17.27
2023-04-11T09:19:34.910Z,12.63
2023-04-11T09:22:05.791Z,14.85
2023-04-11T09:24:35.231Z,12.02
2023-04-11T09:27:13.850Z,15.50
2023-04-11T09:29:43.272Z,18.10
2023-04-11T09:32:31.090Z,15.52
2023-04-11T09:35:18.755Z,10.07
2023-04-11T09:37:56.184Z,10.30
2023-04-11T09:40:31.407Z,15.50
2023-04-11T09:43:00.718Z,8.73
2023-04-11T09:45:30.859Z,6.45
2023-04-11T09:47:59.802Z,13.07
2023-04-11T09:50:28.048Z,17.10
2023-04-11T09:52:59.399Z,11.15
2023-04-11T09:55:26.992Z,18.73
2023-04-11T09:57:54.712Z,9.30
2023-04-11T10:00:30.052Z,8.65
2023-04-11T10:02:57.340Z,5.15
2023-04-11T10:05:30.375Z,9.68
2023-04-11T10:08:05.799Z,6.53
2023-04-11T10:10:33.035Z,14.52
2023-04-11T10:13:00.275Z,9.75
2023-04-11T10:15:27.939Z,6.05
2023-04-11T10:18:13.749Z,12.40
2023-04-11T10:20:43.610Z,5.85
2023-04-11T10:23:11.272Z,9.68
2023-04-11T10:25:55.926Z,8.43
2023-04-11T10:28:31.867Z,3.88
2023-04-11T10:31:04.663Z,5.43
2023-04-11T10:33:32.823Z,9.20
2023-04-11T10:36:12.193Z,9.43
2023-04-11T10:38:48.465Z,12.20
2023-04-11T10:41:34.083Z,5.20
2023-04-11T10:44:24.815Z,14.90
2023-04-11T10:46:54.455Z,7.82
2023-04-11T10:49:32.710Z,7.75
2023-04-11T10:52:18.581Z,14.23
2023-04-11T10:54:48.590Z,6.47
2023-04-11T10:57:15.743Z,8.25
2023-04-11T10:59:42.773Z,7.65
2023-04-11T11:02:10.028Z,5.00
2023-04-11T11:04:38.700Z,8.95
2023-04-11T11:07:08.105Z,11.63
2023-04-11T11:09:35.383Z,9.55
2023-04-11T11:12:12.816Z,9.82
2023-04-11T11:14:45.745Z,7.20
2023-04-11T11:17:14.712Z,6.00
2023-04-11T11:19:45.207Z,11.57
2023-04-11T11:22:25.366Z,7.53
2023-04-11T11:24:52.848Z,7.88
2023-04-11T11:27:21.246Z,6.15
2023-04-11T11:29:48.275Z,11.70
2023-04-11T11:32:28.491Z,6.28
2023-04-11T11:34:57.408Z,8.93
2023-04-11T11:37:24.808Z,6.72
2023-04-11T11:39:52.198Z,4.30
2023-04-11T11:42:19.536Z,11.30
2023-04-11T11:44:46.668Z,7.57
2023-04-11T11:47:16.552Z,7.88
2023-04-11T11:49:48.314Z,6.05
2023-04-11T11:52:34.730Z,3.17
2023-04-11T11:55:08.714Z,7.40
2023-04-11T11:57:37.325Z,9.40
2023-04-11T12:00:10.409Z,6.07
2023-04-11T12:02:39.432Z,9.90
2023-04-11T12:05:07.884Z,9.38
2023-04-11T12:07:37.798Z,14.38
2023-04-11T12:10:11.796Z,8.35
2023-04-11T12:12:41.770Z,7.25
2023-04-11T12:15:17.338Z,10.98
2023-04-11T12:17:51.881Z,5.10
2023-04-11T12:20:23.841Z,7.78
2023-04-11T12:22:52.131Z,6.07
2023-04-11T12:25:22.197Z,9.20
2023-04-11T12:27:49.248Z,8.68
2023-04-11T12:30:16.551Z,9.00
2023-04-11T12:32:44.892Z,11.43
2023-04-11T12:35:12.811Z,5.60
2023-04-11T12:37:40.257Z,7.53
2023-04-11T12:40:12.094Z,6.55
2023-04-11T12:42:49.482Z,7.40
2023-04-11T12:45:22.916Z,7.95
2023-04-11T12:47:50.091Z,3.92
2023-04-11T12:50:17.664Z,4.88
2023-04-11T12:52:44.800Z,9.25
2023-04-11T12:55:13.358Z,7.18
2023-04-11T12:57:41.434Z,10.45
2023-04-11T13:00:11.503Z,5.90
2023-04-11T13:02:43.910Z,7.47
2023-04-11T13:05:15.046Z,14.57
2023-04-11T13:07:44.841Z,3.65
2023-04-11T13:10:13.862Z,10.77
2023-04-11T13:12:44.248Z,4.05
2023-04-11T13:15:12.845Z,12.13
2023-04-11T13:17:40.200Z,4.13
2023-04-11T13:20:10.723Z,6.10
2023-04-11T13:22:43.425Z,8.07
2023-04-11T13:25:11.923Z,7.95
2023-04-11T13:27:41.689Z,5.68
2023-04-11T13:30:10.443Z,9.05
2023-04-11T13:32:37.615Z,5.38
2023-04-11T13:35:06.280Z,3.72
2023-04-11T13:37:33.366Z,6.60
2023-04-11T13:40:00.465Z,11.63
2023-04-11T13:42:27.575Z,14.40
2023-04-11T13:44:54.679Z,8.35
2023-04-11T13:47:21.739Z,5.13
2023-04-11T13:49:48.818Z,6.18
2023-04-11T13:52:15.986Z,12.85
2023-04-11T13:54:43.061Z,5.82
2023-04-11T13:57:10.097Z,8.98
2023-04-11T13:59:37.149Z,11.73
2023-04-11T14:02:04.621Z,9.30
2023-04-11T14:04:31.773Z,10.82
2023-04-11T14:06:58.844Z,3.92
2023-04-11T14:09:26.059Z,10.38
2023-04-11T14:11:53.121Z,12.95
2023-04-11T14:14:20.392Z,13.07
2023-04-11T14:16:47.622Z,5.95
2023-04-11T14:19:14.686Z,7.32
2023-04-11T14:21:41.848Z,7.25
2023-04-11T14:24:09.496Z,3.95
2023-04-11T14:26:36.545Z,10.88
2023-04-11T14:29:04.322Z,2.67
2023-04-11T14:31:31.836Z,5.28
2023-04-11T14:33:59.254Z,6.57
2023-04-11T14:36:27.751Z,9.77
2023-04-11T14:38:54.824Z,4.40
2023-04-11T14:41:21.896Z,5.30
2023-04-11T14:43:48.918Z,6.13
2023-04-11T14:46:16.105Z,10.57
2023-04-11T14:48:43.218Z,6.45
2023-04-11T14:51:10.469Z,8.40
2023-04-11T14:53:37.596Z,9.32
2023-04-11T14:56:08.064Z,6.22
2023-04-11T14:58:35.098Z,6.85
2023-04-11T15:01:02.365Z,13.45
2023-04-11T15:03:29.675Z,6.88
2023-04-11T15:05:56.998Z,5.28
2023-04-11T15:08:24.056Z,10.43
2023-04-11T15:10:54.082Z,9.68
2023-04-11T15:13:22.519Z,9.18
2023-04-11T15:15:49.721Z,7.32
2023-04-11T15:18:27.923Z,7.65
2023-04-11T15:21:00.537Z,7.00
2023-04-11T15:23:27.649Z,7.22
2023-04-11T15:26:00.364Z,7.43
2023-04-11T15:30:57.741Z,5.57
2023-04-11T15:33:25.521Z,10.70
2023-04-11T15:35:53.759Z,14.05
2023-04-11T15:38:21.733Z,9.00
2023-04-11T15:40:50.563Z,5.68
2023-04-11T15:43:17.991Z,6.35
2023-04-11T15:45:45.138Z,7.22
2023-04-11T15:48:15.761Z,8.45
2023-04-11T15:50:43.789Z,6.55
2023-04-11T15:53:11.606Z,3.95
2023-04-11T15:55:42.887Z,3.45
2023-04-11T15:58:10.548Z,4.30
2023-04-11T16:00:38.934Z,6.20
2023-04-11T16:03:06.267Z,4.00
2023-04-11T16:05:33.737Z,5.43
2023-04-11T16:08:01.391Z,6.90
2023-04-11T16:10:30.033Z,7.80
2023-04-11T16:12:57.290Z,8.75
2023-04-11T16:15:24.329Z,6.57
2023-04-11T16:17:51.514Z,5.63
2023-04-11T16:20:21.211Z,9.27
2023-04-11T16:22:48.516Z,3.70
2023-04-11T16:25:18.690Z,7.10
2023-04-11T16:27:45.773Z,9.30
2023-04-11T16:30:13.015Z,4.93
2023-04-11T16:32:40.014Z,3.70
2023-04-11T16:35:34.135Z,6.20
2023-04-11T16:38:01.633Z,8.73
2023-04-11T16:40:30.405Z,3.75
2023-04-11T16:42:57.433Z,12.20
2023-04-11T16:45:24.490Z,7.35
2023-04-11T16:47:51.584Z,14.25
2023-04-11T16:50:19.044Z,10.48
2023-04-11T16:52:46.124Z,5.82
2023-04-11T16:55:14.874Z,7.45
2023-04-11T16:57:41.905Z,5.88
2023-04-11T17:00:16.916Z,9.18
2023-04-11T17:02:44.220Z,13.38
2023-04-11T17:05:11.488Z,6.40
2023-04-11T17:07:38.922Z,11.68
2023-04-11T17:10:07.055Z,6.75
2023-04-11T17:12:34.093Z,8.35
2023-04-11T17:15:01.152Z,8.30
2023-04-11T17:17:28.494Z,9.30
2023-04-11T17:19:55.785Z,6.97
2023-04-11T17:22:23.240Z,7.75
2023-04-11T17:24:50.382Z,7.72
2023-04-11T17:27:17.507Z,9.32
2023-04-11T17:29:45.231Z,15.20
2023-04-11T17:32:12.261Z,11.70
2023-04-11T17:34:39.372Z,7.53
2023-04-11T17:37:06.525Z,8.63
2023-04-11T17:39:33.578Z,8.18
2023-04-11T17:42:01.272Z,8.63
2023-04-11T17:44:28.410Z,7.57
2023-04-11T17:46:55.807Z,9.35
2023-04-11T17:49:24.874Z,8.48
2023-04-11T17:51:58.955Z,11.48
2023-04-11T17:54:27.031Z,11.63
2023-04-11T17:56:54.182Z,6.85
2023-04-11T17:59:21.332Z,9.88
2023-04-11T18:01:48.470Z,8.32
2023-04-11T18:04:16.008Z,5.72
2023-04-11T18:06:46.107Z,7.95
2023-04-11T18:09:13.913Z,8.48
2023-04-11T18:11:41.975Z,10.68
2023-04-11T18:14:09.445Z,8.02
2023-04-11T18:16:38.702Z,8.38
2023-04-11T18:19:05.943Z,7.72
2023-04-11T18:21:32.951Z,4.55
2023-04-11T18:24:00.255Z,7.60
2023-04-11T18:26:27.456Z,9.57
2023-04-11T18:28:54.517Z,8.05
2023-04-11T18:31:22.052Z,8.95
2023-04-11T18:33:49.124Z,12.15
2023-04-11T18:36:16.235Z,11.80
2023-04-11T18:38:43.956Z,8.63
2023-04-11T18:41:11.012Z,9.55
2023-04-11T18:43:38.852Z,5.95
2023-04-11T18:46:07.746Z,16.40
2023-04-11T18:48:35.069Z,18.13
2023-04-11T18:51:03.478Z,9.15
2023-04-11T18:53:30.904Z,10.20
2023-04-11T18:56:02.870Z,10.35
2023-04-11T18:58:31.858Z,9.82
2023-04-11T19:01:14.109Z,9.40
2023-04-11T19:03:43.745Z,12.90
2023-04-11T19:06:11.581Z,20.40
2023-04-11T19:08:38.745Z,10.27
2023-04-11T19:11:05.870Z,13.00
2023-04-11T19:13:33.018Z,30.42
2023-04-11T19:16:00.242Z,13.48
2023-04-11T19:18:27.305Z,9.57
2023-04-11T19:20:54.562Z,15.02
2023-04-11T19:23:21.661Z,18.58
2023-04-11T19:25:48.706Z,14.38
2023-04-11T19:28:15.962Z,14.68
2023-04-11T19:30:43.096Z,11.13
2023-04-11T19:33:10.380Z,11.68
2023-04-11T19:35:37.686Z,8.55
2023-04-11T19:38:06.289Z,17.67
2023-04-11T19:40:37.361Z,18.05
2023-04-11T19:43:09.204Z,14.45
2023-04-11T19:45:36.817Z,11.60
2023-04-11T19:48:04.304Z,7.63
2023-04-11T19:50:34.561Z,15.20
2023-04-11T19:53:04.407Z,9.30
2023-04-11T19:55:51.434Z,18.15
2023-04-11T19:58:26.857Z,14.18
2023-04-11T20:00:56.832Z,12.98
2023-04-11T20:03:32.647Z,14.55
2023-04-11T20:06:05.674Z,18.30
2023-04-11T20:08:34.862Z,11.02
2023-04-11T20:11:05.674Z,16.88
2023-04-11T20:13:34.008Z,16.38
2023-04-11T20:16:09.678Z,15.23
2023-04-11T20:18:39.694Z,26.33
2023-04-11T20:21:10.924Z,14.63
2023-04-11T20:23:41.925Z,20.08
2023-04-11T20:26:09.588Z,13.75
2023-04-11T20:28:42.015Z,18.65
2023-04-11T20:31:13.871Z,13.95
2023-04-11T20:33:41.252Z,14.20
2023-04-11T20:36:09.486Z,16.08
2023-04-11T20:38:40.341Z,9.45
2023-04-11T20:41:09.356Z,17.45
2023-04-11T20:43:42.168Z,14.60
2023-04-11T20:46:16.624Z,12.50
2023-04-11T20:48:46.374Z,14.27
2023-04-11T20:51:20.901Z,12.75
2023-04-11T20:53:58.789Z,16.50
2023-04-11T20:56:35.154Z,14.52
2023-04-11T20:59:04.947Z,43.03
2023-04-11T21:01:34.903Z,15.93
2023-04-11T21:04:03.339Z,16.88
2023-04-11T21:06:37.820Z,12.18
2023-04-11T21:09:05.960Z,14.05
2023-04-11T21:11:39.586Z,13.25
2023-04-11T21:14:07.203Z,16.30
2023-04-11T21:16:39.855Z,16.02
2023-04-11T21:19:08.130Z,15.18
2023-04-11T21:21:40.871Z,15.75
2023-04-11T21:24:09.447Z,16.27
2023-04-11T21:26:39.742Z,15.23
2023-04-11T21:29:07.102Z,19.33
2023-04-11T21:31:34.738Z,21.52
2023-04-11T21:34:02.283Z,19.75
2023-04-11T21:36:29.676Z,20.25
2023-04-11T21:38:58.106Z,11.60
2023-04-11T21:41:25.809Z,7.90
2023-04-11T21:43:58.109Z,9.40
2023-04-11T21:46:30.645Z,13.15
2023-04-11T21:49:06.552Z,11.55
2023-04-11T21:51:33.924Z,19.48
2023-04-11T21:54:07.034Z,16.92
2023-04-11T21:56:34.502Z,7.55
2023-04-11T21:59:04.415Z,11.52
2023-04-11T22:01:34.951Z,17.67
2023-04-11T22:04:03.404Z,15.60
2023-04-11T22:06:31.031Z,11.38
2023-04-11T22:09:01.268Z,19.95
2023-04-11T22:11:32.026Z,19.70
2023-04-11T22:14:04.533Z,7.53
2023-04-11T22:16:37.536Z,12.07
2023-04-11T22:19:08.632Z,11.32
2023-04-11T22:21:36.533Z,18.13
2023-04-11T22:24:04.543Z,12.35
2023-04-11T22:26:34.765Z,11.70
2023-04-11T22:29:05.672Z,9.00
2023-04-11T22:31:38.663Z,18.05
2023-04-11T22:34:08.296Z,14.27
2023-04-11T22:36:36.091Z,9.02
2023-04-11T22:39:07.948Z,14.20
2023-04-11T22:41:38.350Z,17.63
2023-04-11T22:44:08.901Z,13.60
2023-04-11T22:46:41.688Z,13.30
2023-04-11T22:49:14.681Z,10.18
2023-04-11T22:51:41.791Z,16.90
2023-04-11T22:54:09.713Z,10.73
2023-04-11T22:56:37.591Z,21.58
2023-04-11T22:59:04.878Z,12.18
2023-04-11T23:01:33.163Z,12.95
2023-04-11T23:04:01.742Z,12.60
2023-04-11T23:06:29.138Z,11.88
2023-04-11T23:08:56.680Z,11.63
2023-04-11T23:11:24.862Z,15.98
2023-04-11T23:13:55.420Z,9.60
2023-04-11T23:16:23.149Z,10.95
2023-04-11T23:18:53.427Z,14.10
2023-04-11T23:21:20.916Z,13.18
2023-04-11T23:23:52.198Z,12.18
2023-04-11T23:26:20.667Z,16.90
2023-04-11T23:28:48.193Z,19.55
2023-04-11T23:31:18.865Z,14.95
2023-04-11T23:33:46.527Z,9.27
2023-04-11T23:36:16.689Z,11.95
2023-04-11T23:38:47.251Z,13.77
2023-04-11T23:41:14.911Z,15.13
2023-04-11T23:43:42.021Z,7.85
2023-04-11T23:46:09.295Z,15.93
2023-04-11T23:48:37.105Z,10.88
2023-04-11T23:51:04.669Z,14.60
2023-04-11T23:53:32.029Z,10.25
2023-04-11T23:56:00.254Z,13.80
2023-04-11T23:58:28.587Z,14.25
